createdAt,value
2023-01-10T00:01:18.048Z,1.65
2023-01-10T00:03:44.697Z,1.75
2023-01-10T00:06:11.596Z,1.60
2023-01-10T00:08:38.275Z,1.52
2023-01-10T00:11:25.256Z,2.28
2023-01-10T00:13:56.206Z,1.95
2023-01-10T00:16:23.490Z,1.35
2023-01-10T00:18:50.498Z,1.30
2023-01-10T00:21:17.259Z,1.50
2023-01-10T00:23:44.754Z,1.55
2023-01-10T00:26:12.179Z,1.40
2023-01-10T00:28:39.636Z,1.60
2023-01-10T00:31:07.074Z,2.10
2023-01-10T00:33:35.244Z,1.95
2023-01-10T00:36:04.410Z,1.60
2023-01-10T00:38:31.775Z,1.65
2023-01-10T00:40:58.764Z,2.40
2023-01-10T00:43:44.338Z,2.30
2023-01-10T00:46:11.487Z,2.03
2023-01-10T00:48:38.448Z,1.80
2023-01-10T00:51:05.693Z,1.63
2023-01-10T00:53:32.454Z,2.42
2023-01-10T00:55:59.164Z,2.58
2023-01-10T00:58:25.813Z,1.77
2023-01-10T01:00:52.541Z,2.17
2023-01-10T01:03:21.330Z,2.50
2023-01-10T01:05:48.930Z,1.83
2023-01-10T01:08:17.649Z,2.35
2023-01-10T01:10:44.283Z,2.53
2023-01-10T01:13:15.237Z,2.33
2023-01-10T01:15:42.268Z,1.48
2023-01-10T01:18:12.303Z,1.50
2023-01-10T01:20:40.583Z,2.30
2023-01-10T01:23:07.424Z,1.77
2023-01-10T01:25:34.285Z,2.15
2023-01-10T01:28:00.914Z,2.08
2023-01-10T01:30:27.593Z,1.83
2023-01-10T01:32:54.280Z,2.30
2023-01-10T01:35:21.818Z,2.20
2023-01-10T01:37:48.666Z,1.80
2023-01-10T01:40:17.704Z,2.45
2023-01-10T01:42:45.688Z,1.83
2023-01-10T01:45:15.508Z,1.80
2023-01-10T01:47:51.153Z,2.13
2023-01-10T01:50:20.388Z,2.22
2023-01-10T01:52:49.267Z,2.53
2023-01-10T01:55:16.155Z,1.80
2023-01-10T01:57:44.295Z,2.70
2023-01-10T02:00:11.952Z,1.63
2023-01-10T02:03:01.260Z,2.00
2023-01-10T02:05:30.144Z,1.98
2023-01-10T02:07:59.905Z,2.80
2023-01-10T02:10:45.452Z,2.00
2023-01-10T02:13:15.359Z,2.20
2023-01-10T02:15:42.193Z,2.28
2023-01-10T02:18:09.198Z,2.20
2023-01-10T02:21:06.099Z,2.00
2023-01-10T02:23:47.914Z,2.70
2023-01-10T02:26:40.823Z,2.72
2023-01-10T02:29:22.704Z,1.75
2023-01-10T02:32:07.717Z,1.83
2023-01-10T02:34:49.500Z,1.90
2023-01-10T02:37:45.259Z,1.70
2023-01-10T02:40:30.100Z,2.25
2023-01-10T02:42:56.690Z,2.47
2023-01-10T02:45:39.268Z,2.05
2023-01-10T02:48:05.919Z,2.07
2023-01-10T02:50:41.797Z,3.13
2023-01-10T02:53:13.971Z,2.38
2023-01-10T02:56:11.451Z,1.48
2023-01-10T02:59:15.754Z,3.78
2023-01-10T03:02:08.778Z,1.80
2023-01-10T03:04:52.078Z,2.85
2023-01-10T03:10:10.659Z,1.83
2023-01-10T03:13:02.241Z,1.70
2023-01-10T03:15:35.302Z,1.70
2023-01-10T03:18:04.489Z,2.05
2023-01-10T03:20:35.585Z,1.45
2023-01-10T03:23:05.329Z,2.05
2023-01-10T03:25:35.914Z,2.25
2023-01-10T03:28:10.548Z,1.80
2023-01-10T03:30:58.687Z,1.83
2023-01-10T03:33:29.831Z,1.80
2023-01-10T03:36:05.486Z,1.83
2023-01-10T03:38:46.459Z,1.50
2023-01-10T03:41:42.149Z,2.40
2023-01-10T03:44:36.698Z,1.73
2023-01-10T03:47:24.523Z,2.22
2023-01-10T03:49:57.099Z,1.70
2023-01-10T03:52:25.133Z,2.15
2023-01-10T03:54:52.150Z,1.55
2023-01-10T03:57:21.436Z,2.05
2023-01-10T03:59:54.183Z,1.42
2023-01-10T04:02:21.268Z,1.67
2023-01-10T04:04:47.969Z,1.63
2023-01-10T04:07:14.709Z,2.33
2023-01-10T04:09:41.341Z,1.58
2023-01-10T04:12:08.092Z,1.95
2023-01-10T04:14:34.837Z,1.52
2023-01-10T04:17:01.595Z,2.03
2023-01-10T04:19:28.376Z,1.40
2023-01-10T04:21:55.117Z,1.58
2023-01-10T04:24:22.019Z,1.88
2023-01-10T04:26:48.734Z,1.60
2023-01-10T04:29:15.407Z,1.60
2023-01-10T04:31:42.281Z,2.08
2023-01-10T04:34:09.629Z,1.83
2023-01-10T04:36:36.961Z,1.50
2023-01-10T04:39:04.745Z,2.03
2023-01-10T04:41:31.434Z,1.85
2023-01-10T04:43:58.220Z,2.20
2023-01-10T04:46:24.870Z,1.75
2023-01-10T04:48:52.232Z,1.65
2023-01-10T04:51:18.935Z,2.13
2023-01-10T04:53:45.548Z,1.70
2023-01-10T04:56:19.769Z,1.73
2023-01-10T04:58:47.375Z,1.55
2023-01-10T05:01:21.099Z,1.98
2023-01-10T05:03:52.361Z,1.42
2023-01-10T05:06:19.824Z,1.77
2023-01-10T05:08:46.717Z,1.30
2023-01-10T05:11:13.800Z,1.40
2023-01-10T05:13:41.018Z,1.75
2023-01-10T05:16:08.386Z,1.40
2023-01-10T05:18:35.296Z,1.20
2023-01-10T05:21:08.484Z,1.50
2023-01-10T05:26:16.803Z,1.50
2023-01-10T05:28:43.663Z,1.45
2023-01-10T05:31:13.355Z,1.27
2023-01-10T05:33:40.307Z,1.50
2023-01-10T05:36:07.700Z,1.60
2023-01-10T05:38:34.379Z,2.00
2023-01-10T05:41:01.431Z,1.80
2023-01-10T05:43:28.726Z,1.85
2023-01-10T05:45:55.632Z,1.90
2023-01-10T05:48:22.519Z,1.60
2023-01-10T05:50:52.766Z,1.75
2023-01-10T05:53:20.051Z,1.70
2023-01-10T05:55:57.755Z,1.88
2023-01-10T05:58:24.996Z,1.70
2023-01-10T06:00:52.123Z,1.30
2023-01-10T06:03:19.706Z,1.52
2023-01-10T06:05:48.675Z,1.60
2023-01-10T06:08:15.684Z,1.77
2023-01-10T06:10:43.107Z,1.80
2023-01-10T06:13:09.942Z,1.58
2023-01-10T06:15:37.121Z,2.15
2023-01-10T06:18:04.480Z,1.92
2023-01-10T06:20:31.657Z,1.83
2023-01-10T06:23:01.068Z,1.83
2023-01-10T06:25:29.609Z,1.60
2023-01-10T06:27:56.441Z,2.05
2023-01-10T06:30:23.485Z,1.73
2023-01-10T06:32:50.236Z,1.70
2023-01-10T06:35:18.180Z,2.45
2023-01-10T06:37:45.079Z,1.90
2023-01-10T06:40:12.360Z,2.80
2023-01-10T06:42:41.387Z,2.00
2023-01-10T06:45:08.580Z,1.98
2023-01-10T06:47:35.564Z,2.28
2023-01-10T06:50:02.364Z,2.10
2023-01-10T06:52:29.260Z,2.03
2023-01-10T06:54:55.995Z,3.50
2023-01-10T06:57:22.903Z,3.53
2023-01-10T06:59:49.561Z,1.90
2023-01-10T07:02:16.442Z,2.65
2023-01-10T07:04:45.039Z,2.33
2023-01-10T07:07:11.814Z,2.38
2023-01-10T07:09:38.566Z,2.50
2023-01-10T07:12:05.504Z,3.00
2023-01-10T07:14:32.410Z,3.67
2023-01-10T07:16:59.115Z,2.97
2023-01-10T07:19:25.907Z,4.13
2023-01-10T07:21:52.616Z,2.80
2023-01-10T07:24:19.435Z,3.25
2023-01-10T07:26:46.175Z,4.03
2023-01-10T07:29:12.906Z,4.35
2023-01-10T07:31:39.660Z,4.75
2023-01-10T07:34:06.418Z,2.80
2023-01-10T07:36:37.896Z,2.70
2023-01-10T07:39:06.008Z,2.30
2023-01-10T07:41:32.814Z,3.65
2023-01-10T07:43:59.615Z,3.92
2023-01-10T07:46:26.706Z,4.05
2023-01-10T07:48:53.465Z,5.95
2023-01-10T07:51:20.236Z,4.25
2023-01-10T07:53:47.414Z,4.05
2023-01-10T07:56:14.200Z,5.30
2023-01-10T07:58:40.915Z,5.35
2023-01-10T08:01:08.133Z,3.72
2023-01-10T08:03:35.609Z,4.72
2023-01-10T08:06:05.939Z,4.45
2023-01-10T08:08:33.715Z,4.03
2023-01-10T08:11:02.665Z,3.85
2023-01-10T08:13:30.406Z,4.13
2023-01-10T08:15:57.221Z,4.32
2023-01-10T08:18:25.243Z,3.40
2023-01-10T08:20:53.819Z,4.20
2023-01-10T08:23:21.107Z,3.60
2023-01-10T08:25:48.397Z,4.15
2023-01-10T08:28:15.530Z,3.80
2023-01-10T08:30:42.595Z,5.00
2023-01-10T08:33:10.909Z,4.28
2023-01-10T08:35:43.115Z,4.55
2023-01-10T08:38:11.010Z,3.97
2023-01-10T08:40:37.855Z,4.07
2023-01-10T08:43:07.622Z,3.50
2023-01-10T08:45:35.014Z,3.38
2023-01-10T08:48:02.369Z,3.88
2023-01-10T08:50:29.259Z,3.50
2023-01-10T08:52:59.230Z,3.72
2023-01-10T08:55:26.703Z,5.38
2023-01-10T08:57:53.668Z,3.17
2023-01-10T09:00:20.868Z,3.60
2023-01-10T09:02:47.603Z,4.25
2023-01-10T09:05:26.368Z,3.72
2023-01-10T09:07:59.101Z,3.42
2023-01-10T09:10:26.830Z,3.03
2023-01-10T09:12:56.342Z,3.40
2023-01-10T09:15:25.415Z,4.22
2023-01-10T09:18:00.803Z,3.45
2023-01-10T09:20:29.231Z,3.53
2023-01-10T09:22:57.149Z,3.83
2023-01-10T09:25:25.037Z,3.42
2023-01-10T09:27:59.802Z,2.80
2023-01-10T09:30:28.389Z,3.55
2023-01-10T09:32:56.240Z,2.80
2023-01-10T09:35:24.665Z,2.70
2023-01-10T09:37:55.314Z,2.75
2023-01-10T09:40:50.691Z,2.80
2023-01-10T09:43:36.063Z,2.08
2023-01-10T09:46:15.869Z,3.53
2023-01-10T09:48:52.055Z,3.10
2023-01-10T09:51:40.801Z,3.15
2023-01-10T09:54:14.312Z,3.30
2023-01-10T09:56:41.536Z,3.27
2023-01-10T09:59:25.418Z,4.10
2023-01-10T10:02:00.002Z,2.97
2023-01-10T10:04:36.815Z,3.45
2023-01-10T10:07:07.405Z,3.50
2023-01-10T10:09:35.483Z,3.80
2023-01-10T10:12:29.410Z,3.00
2023-01-10T10:15:16.106Z,2.80
2023-01-10T10:17:48.871Z,3.03
2023-01-10T10:20:23.531Z,3.15
2023-01-10T10:23:18.016Z,2.33
2023-01-10T10:26:02.688Z,1.83
2023-01-10T10:28:58.797Z,3.17
2023-01-10T10:31:38.558Z,2.00
2023-01-10T10:34:23.608Z,2.10
2023-01-10T10:37:18.117Z,4.88
2023-01-10T10:39:54.274Z,2.50
2023-01-10T10:42:21.943Z,2.65
2023-01-10T10:45:06.307Z,2.58
2023-01-10T10:47:35.992Z,2.33
2023-01-10T10:50:14.644Z,3.00
2023-01-10T10:52:42.473Z,3.75
2023-01-10T10:55:18.779Z,2.10
2023-01-10T10:57:59.561Z,3.10
2023-01-10T11:00:28.244Z,2.85
2023-01-10T11:03:03.677Z,3.10
2023-01-10T11:05:39.832Z,2.88
2023-01-10T11:08:12.916Z,2.33
2023-01-10T11:10:41.962Z,2.80
2023-01-10T11:13:29.867Z,2.28
2023-01-10T11:15:56.808Z,2.42
2023-01-10T11:18:25.750Z,2.55
2023-01-10T11:21:00.363Z,2.63
2023-01-10T11:23:36.193Z,2.20
2023-01-10T11:26:03.749Z,2.95
2023-01-10T11:28:32.571Z,3.85
2023-01-10T11:31:01.191Z,2.58
2023-01-10T11:33:40.071Z,2.53
2023-01-10T11:36:13.160Z,3.13
2023-01-10T11:38:40.341Z,2.70
2023-01-10T11:41:25.164Z,2.67
2023-01-10T11:43:51.867Z,2.60
2023-01-10T11:46:21.910Z,2.65
2023-01-10T11:49:07.838Z,2.50
2023-01-10T11:51:38.227Z,3.10
2023-01-10T11:54:13.117Z,2.97
2023-01-10T11:56:41.724Z,4.75
2023-01-10T11:59:16.209Z,4.07
2023-01-10T12:01:48.634Z,4.70
2023-01-10T12:04:17.329Z,4.50
2023-01-10T12:06:47.576Z,5.03
2023-01-10T12:09:34.164Z,3.83
2023-01-10T12:12:06.715Z,3.20
2023-01-10T12:14:33.511Z,3.85
2023-01-10T12:17:04.723Z,3.72
2023-01-10T12:19:31.496Z,4.03
2023-01-10T12:22:02.929Z,4.72
2023-01-10T12:24:35.997Z,3.92
2023-01-10T12:27:05.019Z,3.97
2023-01-10T12:29:39.373Z,5.45
2023-01-10T12:32:11.287Z,4.15
2023-01-10T12:34:46.749Z,4.03
2023-01-10T12:37:26.428Z,4.22
2023-01-10T12:39:58.962Z,4.18
2023-01-10T12:43:10.956Z,4.65
2023-01-10T12:45:47.761Z,4.38
2023-01-10T12:48:33.142Z,4.50
2023-01-10T12:51:05.454Z,4.55
2023-01-10T12:53:36.259Z,6.17
2023-01-10T12:56:08.087Z,3.55
2023-01-10T12:58:38.149Z,4.28
2023-01-10T13:01:07.104Z,4.78
2023-01-10T13:03:35.830Z,4.95
2023-01-10T13:06:03.689Z,4.38
2023-01-10T13:08:35.311Z,3.90
2023-01-10T13:11:03.975Z,6.40
2023-01-10T13:13:40.163Z,4.10
2023-01-10T13:16:28.446Z,4.10
2023-01-10T13:19:06.617Z,3.08
2023-01-10T13:21:35.062Z,3.15
2023-01-10T13:24:06.600Z,3.10
2023-01-10T13:26:46.457Z,3.60
2023-01-10T13:29:18.954Z,4.05
2023-01-10T13:31:47.542Z,3.63
2023-01-10T13:34:16.860Z,4.35
2023-01-10T13:36:56.573Z,4.28
2023-01-10T13:39:38.144Z,3.30
2023-01-10T13:42:23.248Z,3.50
2023-01-10T13:45:05.011Z,3.28
2023-01-10T13:47:40.674Z,3.63
2023-01-10T13:50:22.782Z,3.25
2023-01-10T13:53:18.237Z,2.47
2023-01-10T13:55:53.701Z,2.97
2023-01-10T13:58:42.153Z,3.80
2023-01-10T14:01:44.896Z,4.22
2023-01-10T14:04:31.674Z,3.40
2023-01-10T14:07:04.800Z,3.38
2023-01-10T14:09:44.832Z,4.32
2023-01-10T14:12:29.956Z,4.60
2023-01-10T14:15:18.284Z,5.30
2023-01-10T14:17:45.149Z,4.75
2023-01-10T14:20:20.418Z,4.28
2023-01-10T14:23:16.191Z,4.25
2023-01-10T14:25:44.953Z,3.33
2023-01-10T14:28:40.860Z,3.72
2023-01-10T14:31:13.725Z,6.22
2023-01-10T14:33:43.458Z,4.85
2023-01-10T14:36:20.815Z,3.83
2023-01-10T14:38:49.936Z,4.65
2023-01-10T14:41:25.070Z,4.57
2023-01-10T14:44:00.876Z,5.03
2023-01-10T14:46:51.949Z,3.80
2023-01-10T14:49:30.817Z,4.18
2023-01-10T14:52:33.409Z,4.65
2023-01-10T14:55:16.928Z,5.38
2023-01-10T14:57:55.262Z,5.45
2023-01-10T15:00:28.259Z,5.97
2023-01-10T15:02:55.274Z,4.35
2023-01-10T15:05:27.443Z,4.32
2023-01-10T15:07:55.633Z,5.78
2023-01-10T15:10:30.968Z,4.43
2023-01-10T15:13:03.185Z,4.68
2023-01-10T15:15:33.842Z,5.50
2023-01-10T15:18:02.638Z,4.70
2023-01-10T15:20:30.113Z,4.60
2023-01-10T15:23:01.413Z,5.38
2023-01-10T15:25:38.494Z,5.55
2023-01-10T15:28:16.335Z,4.57
2023-01-10T15:30:43.904Z,4.78
2023-01-10T15:33:17.280Z,3.88
2023-01-10T15:35:44.483Z,4.57
2023-01-10T15:38:24.125Z,4.55
2023-01-10T15:41:02.639Z,5.50
2023-01-10T15:43:31.556Z,4.45
2023-01-10T15:46:00.258Z,4.72
2023-01-10T15:48:54.736Z,3.83
2023-01-10T15:51:37.931Z,4.38
2023-01-10T15:54:06.308Z,4.97
2023-01-10T15:56:33.055Z,4.75
2023-01-10T15:59:01.280Z,5.00
2023-01-10T16:01:29.139Z,5.43
2023-01-10T16:04:03.219Z,3.75
2023-01-10T16:06:35.909Z,4.47
2023-01-10T16:09:07.206Z,4.45
2023-01-10T16:12:08.859Z,4.55
2023-01-10T16:14:36.130Z,3.10
2023-01-10T16:17:03.585Z,3.75
2023-01-10T16:19:30.888Z,4.68
2023-01-10T16:21:59.390Z,4.63
2023-01-10T16:24:29.482Z,3.67
2023-01-10T16:26:58.544Z,4.95
2023-01-10T16:29:25.293Z,4.07
2023-01-10T16:31:53.426Z,4.20
2023-01-10T16:34:20.895Z,4.03
2023-01-10T16:36:47.862Z,4.40
2023-01-10T16:39:18.175Z,4.00
2023-01-10T16:42:04.537Z,3.90
2023-01-10T16:44:32.231Z,3.65
2023-01-10T16:46:59.279Z,4.18
2023-01-10T16:49:26.550Z,3.20
2023-01-10T16:51:54.038Z,4.25
2023-01-10T16:54:25.336Z,4.40
2023-01-10T16:56:52.181Z,3.88
2023-01-10T16:59:20.409Z,5.38
2023-01-10T17:01:52.108Z,3.25
2023-01-10T17:04:36.039Z,4.05
2023-01-10T17:07:02.771Z,3.10
2023-01-10T17:09:31.033Z,4.00
2023-01-10T17:12:07.540Z,2.78
2023-01-10T17:14:36.154Z,2.90
2023-01-10T17:17:04.199Z,2.97
2023-01-10T17:19:31.264Z,4.18
2023-01-10T17:21:58.032Z,3.42
2023-01-10T17:24:24.709Z,3.30
2023-01-10T17:26:51.530Z,5.00
2023-01-10T17:29:18.209Z,4.20
2023-01-10T17:31:45.010Z,3.60
2023-01-10T17:34:11.752Z,3.33
2023-01-10T17:36:39.892Z,2.90
2023-01-10T17:39:06.821Z,5.07
2023-01-10T17:41:33.988Z,4.43
2023-01-10T17:44:00.660Z,3.58
2023-01-10T17:46:27.340Z,3.80
2023-01-10T17:48:54.122Z,3.35
2023-01-10T17:51:22.985Z,4.22
2023-01-10T17:53:49.641Z,3.83
2023-01-10T17:56:16.988Z,3.13
2023-01-10T17:58:44.813Z,2.97
2023-01-10T18:01:24.639Z,3.35
2023-01-10T18:03:52.113Z,2.30
2023-01-10T18:06:24.507Z,2.72
2023-01-10T18:08:52.289Z,2.88
2023-01-10T18:11:19.010Z,3.13
2023-01-10T18:13:45.742Z,2.35
2023-01-10T18:16:12.421Z,3.58
2023-01-10T18:18:39.195Z,6.90
2023-01-10T18:21:13.460Z,4.15
2023-01-10T18:23:40.385Z,3.30
2023-01-10T18:26:09.552Z,3.05
2023-01-10T18:28:43.116Z,3.00
2023-01-10T18:31:17.692Z,2.90
2023-01-10T18:33:46.024Z,2.85
2023-01-10T18:36:15.569Z,2.30
2023-01-10T18:38:43.003Z,2.97
2023-01-10T18:41:09.717Z,2.85
2023-01-10T18:43:36.431Z,3.50
2023-01-10T18:46:10.402Z,2.83
2023-01-10T18:48:37.455Z,2.45
2023-01-10T18:51:05.128Z,2.67
2023-01-10T18:53:32.882Z,3.33
2023-01-10T18:56:02.013Z,2.13
2023-01-10T18:58:33.527Z,2.20
2023-01-10T19:01:06.850Z,2.15
2023-01-10T19:03:34.053Z,2.47
2023-01-10T19:06:02.148Z,2.58
2023-01-10T19:08:28.994Z,3.45
2023-01-10T19:13:43.679Z,3.30
2023-01-10T19:16:13.509Z,3.70
2023-01-10T19:18:40.864Z,2.67
2023-01-10T19:21:15.278Z,3.17
2023-01-10T19:23:46.765Z,2.58
2023-01-10T19:26:14.199Z,3.00
2023-01-10T19:28:42.012Z,2.90
2023-01-10T19:31:09.179Z,4.07
2023-01-10T19:33:37.686Z,3.63
2023-01-10T19:36:06.729Z,4.47
2023-01-10T19:38:34.229Z,4.00
2023-01-10T19:41:01.035Z,3.88
2023-01-10T19:43:27.958Z,2.75
2023-01-10T19:45:55.375Z,2.40
2023-01-10T19:48:23.243Z,3.10
2023-01-10T19:50:49.988Z,2.40
2023-01-10T19:53:16.759Z,2.15
2023-01-10T19:55:43.409Z,2.20
2023-01-10T19:58:10.186Z,2.20
2023-01-10T20:00:36.843Z,1.98
2023-01-10T20:03:05.250Z,1.92
2023-01-10T20:05:36.372Z,2.80
2023-01-10T20:08:04.971Z,2.50
2023-01-10T20:10:31.773Z,4.15
2023-01-10T20:12:58.551Z,5.40
2023-01-10T20:15:25.259Z,4.93
2023-01-10T20:17:52.008Z,3.78
2023-01-10T20:20:20.872Z,3.60
2023-01-10T20:22:48.366Z,3.45
2023-01-10T20:25:15.075Z,2.22
2023-01-10T20:27:41.968Z,2.70
2023-01-10T20:30:09.414Z,2.10
2023-01-10T20:32:36.270Z,2.55
2023-01-10T20:35:02.943Z,2.22
2023-01-10T20:37:29.818Z,2.22
2023-01-10T20:39:57.274Z,2.50
2023-01-10T20:42:24.016Z,2.53
2023-01-10T20:44:50.723Z,2.47
2023-01-10T20:47:17.409Z,2.88
2023-01-10T20:49:44.118Z,2.63
2023-01-10T20:52:10.764Z,2.00
2023-01-10T20:54:38.769Z,2.00
2023-01-10T20:57:05.692Z,1.85
2023-01-10T20:59:33.759Z,1.95
2023-01-10T21:02:01.373Z,1.90
2023-01-10T21:04:28.955Z,1.58
2023-01-10T21:06:55.734Z,1.58
2023-01-10T21:09:22.423Z,1.10
2023-01-10T21:12:02.059Z,1.10
2023-01-10T21:14:36.335Z,1.10
2023-01-10T21:17:03.272Z,1.15
2023-01-10T21:19:30.015Z,1.13
2023-01-10T21:21:56.685Z,1.20
2023-01-10T21:24:25.091Z,1.10
2023-01-10T21:26:52.446Z,1.10
2023-01-10T21:29:19.704Z,1.20
2023-01-10T21:31:46.727Z,1.23
2023-01-10T21:34:13.596Z,1.20
2023-01-10T21:36:40.355Z,1.33
2023-01-10T21:39:07.196Z,1.10
2023-01-10T21:41:52.448Z,1.10
2023-01-10T21:44:20.364Z,1.30
2023-01-10T21:46:49.286Z,1.17
2023-01-10T21:49:16.075Z,1.05
2023-01-10T21:51:43.785Z,1.17
2023-01-10T21:54:10.924Z,1.10
2023-01-10T21:56:40.195Z,1.15
2023-01-10T21:59:07.051Z,1.25
2023-01-10T22:01:33.742Z,1.30
2023-01-10T22:04:00.425Z,1.10
2023-01-10T22:06:27.265Z,1.10
2023-01-10T22:08:54.515Z,1.10
2023-01-10T22:11:21.571Z,1.00
2023-01-10T22:13:48.317Z,1.10
2023-01-10T22:16:15.013Z,1.63
2023-01-10T22:18:45.560Z,1.20
2023-01-10T22:21:12.658Z,1.30
2023-01-10T22:23:43.013Z,1.25
2023-01-10T22:26:11.831Z,1.50
2023-01-10T22:28:38.603Z,1.65
2023-01-10T22:31:05.773Z,1.50
2023-01-10T22:33:35.220Z,1.58
2023-01-10T22:36:05.802Z,2.20
2023-01-10T22:38:32.893Z,1.48
2023-01-10T22:41:09.433Z,1.75
2023-01-10T22:43:36.438Z,1.52
2023-01-10T22:46:06.800Z,1.33
2023-01-10T22:48:35.915Z,1.63
2023-01-10T22:51:04.290Z,1.70
2023-01-10T22:53:31.877Z,2.00
2023-01-10T22:56:05.157Z,1.35
2023-01-10T23:01:04.217Z,1.50
2023-01-10T23:03:34.060Z,2.05
2023-01-10T23:06:01.265Z,1.42
2023-01-10T23:08:28.163Z,1.67
2023-01-10T23:10:55.216Z,1.50
2023-01-10T23:13:23.403Z,1.67
2023-01-10T23:16:02.559Z,3.38
2023-01-10T23:18:29.946Z,2.00
2023-01-10T23:20:57.334Z,2.15
2023-01-10T23:23:25.427Z,1.98
2023-01-10T23:26:01.790Z,2.30
2023-01-10T23:28:49.348Z,1.40
2023-01-10T23:31:19.573Z,1.45
2023-01-10T23:33:47.283Z,1.73
2023-01-10T23:36:14.697Z,2.38
2023-01-10T23:38:41.464Z,1.55
2023-01-10T23:41:08.765Z,1.58
2023-01-10T23:43:35.658Z,1.50
2023-01-10T23:46:02.427Z,1.75
2023-01-10T23:48:29.956Z,1.63
2023-01-10T23:50:57.244Z,1.60
2023-01-10T23:53:24.022Z,1.35
2023-01-10T23:55:50.807Z,1.67
2023-01-10T23:58:17.586Z,1.70
